Terminal Aerodrome Forecast
Issued by NWS

Home | Current Version | Previous Version | Graphics & Text | Print | Product List | Glossary On
Versions: 1 2 3 4 5 6 7 8 9 10 11 12 13 14 15 16 17 18
000
FTUS43 KABR 222334
TAFATY
TAF
KATY 222334Z 2300/2324 21010KT P6SM SKC
     FM230500 22011KT P6SM VCSH SCT200 WS020/25040KT
     FM230900 27014G21KT P6SM SCT200 WS020/29040KT
     FM231700 31026G36KT P6SM BKN080=

USA.gov is the U.S. government's official web portal to all federal, state and local government web resources and services.